createdAt,value
2023-02-28T00:01:29.704Z,114.38
2023-02-28T00:03:57.060Z,114.16
2023-02-28T00:06:25.187Z,114.22
2023-02-28T00:08:51.978Z,114.67
2023-02-28T00:11:18.626Z,114.45
2023-02-28T00:13:47.468Z,114.54
2023-02-28T00:16:20.281Z,114.64
2023-02-28T00:18:48.591Z,114.56
2023-02-28T00:21:16.369Z,113.87
2023-02-28T00:23:43.284Z,113.97
2023-02-28T00:26:30.368Z,114.38
2023-02-28T00:28:57.126Z,114.75
2023-02-28T00:31:23.866Z,114.84
2023-02-28T00:33:51.879Z,114.67
2023-02-28T00:36:18.639Z,114.29
2023-02-28T00:38:45.394Z,114.16
2023-02-28T00:41:12.570Z,113.90
2023-02-28T00:43:40.380Z,114.58
2023-02-28T00:46:08.406Z,114.86
2023-02-28T00:48:35.193Z,115.14
2023-02-28T00:51:02.244Z,114.88
2023-02-28T00:53:30.056Z,114.23
2023-02-28T00:55:56.810Z,114.20
2023-02-28T00:58:23.684Z,114.17
2023-02-28T01:00:51.882Z,114.05
2023-02-28T01:03:19.933Z,113.64
2023-02-28T01:05:47.420Z,114.28
2023-02-28T01:08:15.037Z,114.88
2023-02-28T01:10:42.149Z,114.94
2023-02-28T01:13:09.150Z,114.89
2023-02-28T01:15:35.971Z,114.83
2023-02-28T01:18:02.854Z,114.82
2023-02-28T01:20:29.548Z,114.40
2023-02-28T01:22:56.354Z,114.61
2023-02-28T01:25:23.181Z,114.90
2023-02-28T01:27:51.060Z,114.50
2023-02-28T01:30:17.860Z,114.30
2023-02-28T01:32:44.573Z,114.14
2023-02-28T01:35:11.394Z,114.81
2023-02-28T01:37:38.052Z,114.89
2023-02-28T01:40:05.274Z,114.46
2023-02-28T01:42:31.952Z,114.43
2023-02-28T01:45:01.514Z,114.93
2023-02-28T01:47:35.684Z,115.09
2023-02-28T01:50:05.932Z,115.11
2023-02-28T01:52:33.958Z,115.43
2023-02-28T01:55:03.184Z,115.23
2023-02-28T01:57:38.471Z,114.89
2023-02-28T02:00:10.426Z,114.90
2023-02-28T02:02:38.546Z,115.15
2023-02-28T02:05:11.771Z,115.32
2023-02-28T02:07:43.749Z,115.03
2023-02-28T02:10:18.353Z,115.03
2023-02-28T02:13:22.346Z,114.81
2023-02-28T02:16:15.526Z,115.10
2023-02-28T02:18:55.362Z,115.19
2023-02-28T02:21:31.391Z,115.54
2023-02-28T02:24:13.400Z,115.41
2023-02-28T02:26:46.067Z,115.64
2023-02-28T02:29:15.883Z,115.54
2023-02-28T02:32:08.115Z,115.44
2023-02-28T02:34:41.375Z,115.73
2023-02-28T02:37:17.471Z,115.86
2023-02-28T02:39:55.814Z,116.02
2023-02-28T02:42:51.855Z,115.64
2023-02-28T02:45:26.127Z,115.39
2023-02-28T02:47:53.365Z,115.88
2023-02-28T02:50:32.498Z,115.73
2023-02-28T02:53:02.521Z,115.64
2023-02-28T02:55:30.871Z,115.58
2023-02-28T02:58:05.558Z,115.72
2023-02-28T03:00:42.374Z,116.01
2023-02-28T03:03:12.457Z,115.80
2023-02-28T03:05:52.118Z,115.51
2023-02-28T03:08:18.911Z,115.39
2023-02-28T03:10:50.977Z,115.37
2023-02-28T03:13:17.984Z,115.44
2023-02-28T03:16:12.948Z,115.76
2023-02-28T03:19:04.609Z,115.70
2023-02-28T03:21:39.277Z,115.54
2023-02-28T03:24:15.113Z,115.54
2023-02-28T03:26:50.797Z,115.52
2023-02-28T03:29:34.395Z,115.42
2023-02-28T03:32:19.125Z,115.19
2023-02-28T03:35:12.290Z,115.12
2023-02-28T03:37:43.426Z,115.24
2023-02-28T03:40:15.079Z,115.22
2023-02-28T03:42:46.296Z,115.77
2023-02-28T03:45:27.247Z,115.99
2023-02-28T03:47:55.778Z,115.50
2023-02-28T03:50:48.863Z,115.33
2023-02-28T03:53:36.964Z,115.41
2023-02-28T03:56:20.348Z,115.54
2023-02-28T03:58:54.965Z,115.83
2023-02-28T04:01:49.056Z,116.12
2023-02-28T04:04:17.352Z,116.38
2023-02-28T04:06:45.166Z,116.73
2023-02-28T04:09:15.151Z,116.78
2023-02-28T04:11:45.096Z,116.89
2023-02-28T04:14:12.870Z,116.69
2023-02-28T04:16:42.447Z,116.89
2023-02-28T04:19:10.762Z,116.66
2023-02-28T04:21:43.867Z,116.15
2023-02-28T04:24:15.169Z,116.34
2023-02-28T04:26:45.128Z,115.84
2023-02-28T04:29:14.281Z,116.04
2023-02-28T04:31:41.696Z,116.83
2023-02-28T04:34:09.183Z,116.69
2023-02-28T04:36:36.030Z,116.30
2023-02-28T04:39:02.819Z,116.25
2023-02-28T04:41:32.342Z,116.14
2023-02-28T04:44:00.013Z,116.47
2023-02-28T04:46:26.930Z,116.60
2023-02-28T04:48:55.419Z,117.39
2023-02-28T04:51:22.170Z,116.73
2023-02-28T04:53:49.357Z,116.22
2023-02-28T04:56:18.498Z,115.98
2023-02-28T04:58:46.031Z,116.07
2023-02-28T05:01:22.585Z,115.88
2023-02-28T05:03:50.262Z,115.61
2023-02-28T05:06:18.044Z,115.75
2023-02-28T05:08:44.977Z,115.86
2023-02-28T05:11:16.560Z,116.15
2023-02-28T05:13:43.336Z,116.65
2023-02-28T05:16:10.215Z,116.94
2023-02-28T05:18:37.491Z,118.99
2023-02-28T05:21:04.528Z,117.77
2023-02-28T05:23:31.311Z,117.60
2023-02-28T05:25:58.279Z,117.37
2023-02-28T05:28:25.105Z,117.10
2023-02-28T05:30:51.917Z,117.03
2023-02-28T05:33:18.611Z,117.22
2023-02-28T05:35:47.011Z,116.89
2023-02-28T05:38:13.858Z,116.32
2023-02-28T05:40:41.300Z,115.87
2023-02-28T05:43:11.944Z,115.89
2023-02-28T05:45:38.716Z,116.44
2023-02-28T05:48:05.862Z,116.18
2023-02-28T05:50:32.728Z,115.75
2023-02-28T05:52:59.357Z,115.81
2023-02-28T05:55:26.294Z,115.60
2023-02-28T05:57:53.461Z,118.99
2023-02-28T06:00:20.444Z,114.90
2023-02-28T06:02:47.323Z,115.51
2023-02-28T06:05:17.441Z,116.22
2023-02-28T06:07:44.972Z,117.30
2023-02-28T06:10:13.082Z,117.84
2023-02-28T06:12:40.493Z,117.49
2023-02-28T06:15:07.864Z,117.18
2023-02-28T06:17:34.600Z,117.00
2023-02-28T06:20:01.680Z,117.64
2023-02-28T06:22:28.424Z,118.99
2023-02-28T06:24:55.981Z,116.64
2023-02-28T06:27:23.070Z,115.93
2023-02-28T06:29:49.843Z,115.88
2023-02-28T06:32:16.606Z,117.30
2023-02-28T06:34:43.389Z,116.59
2023-02-28T06:37:10.255Z,115.21
2023-02-28T06:39:37.391Z,115.80
2023-02-28T06:42:04.332Z,115.86
2023-02-28T06:44:36.370Z,115.64
2023-02-28T06:47:04.577Z,116.22
2023-02-28T06:49:33.758Z,116.79
2023-02-28T06:52:00.490Z,116.56
2023-02-28T06:54:28.432Z,116.25
2023-02-28T06:56:55.371Z,116.08
2023-02-28T06:59:22.245Z,116.67
2023-02-28T07:01:50.011Z,117.09
2023-02-28T07:04:16.865Z,116.92
2023-02-28T07:06:43.743Z,116.54
2023-02-28T07:09:11.751Z,117.22
2023-02-28T07:11:38.813Z,117.01
2023-02-28T07:14:05.513Z,116.57
2023-02-28T07:16:32.247Z,115.96
2023-02-28T07:18:59.116Z,116.06
2023-02-28T07:21:25.888Z,116.43
2023-02-28T07:23:52.969Z,115.83
2023-02-28T07:26:21.229Z,115.31
2023-02-28T07:28:49.025Z,115.25
2023-02-28T07:31:16.781Z,114.74
2023-02-28T07:33:44.296Z,114.60
2023-02-28T07:36:16.409Z,114.30
2023-02-28T07:38:45.776Z,113.20
2023-02-28T07:41:14.564Z,112.95
2023-02-28T07:43:43.317Z,113.22
2023-02-28T07:46:16.085Z,112.89
2023-02-28T07:48:43.698Z,112.06
2023-02-28T07:51:10.713Z,111.52
2023-02-28T07:53:37.521Z,111.07
2023-02-28T07:56:04.975Z,110.37
2023-02-28T07:58:32.041Z,110.37
2023-02-28T08:01:07.603Z,109.25
2023-02-28T08:03:34.775Z,108.52
2023-02-28T08:06:03.271Z,107.37
2023-02-28T08:08:32.294Z,105.68
2023-02-28T08:11:01.442Z,104.31
2023-02-28T08:13:32.112Z,103.88
2023-02-28T08:15:58.945Z,101.89
2023-02-28T08:18:25.737Z,101.57
2023-02-28T08:20:52.502Z,100.81
2023-02-28T08:23:19.685Z,99.67
2023-02-28T08:25:53.431Z,96.71
2023-02-28T08:28:20.168Z,94.45
2023-02-28T08:30:46.786Z,93.24
2023-02-28T08:33:13.845Z,92.09
2023-02-28T08:35:40.497Z,89.90
2023-02-28T08:38:07.468Z,90.22
2023-02-28T08:40:34.534Z,89.36
2023-02-28T08:43:01.518Z,87.70
2023-02-28T08:45:28.567Z,86.38
2023-02-28T08:47:56.583Z,84.19
2023-02-28T08:50:23.683Z,81.49
2023-02-28T08:52:50.966Z,83.05
2023-02-28T08:55:18.057Z,81.65
2023-02-28T08:57:45.671Z,80.26
2023-02-28T09:00:14.761Z,78.43
2023-02-28T09:02:43.783Z,76.27
2023-02-28T09:05:11.296Z,72.48
2023-02-28T09:07:38.038Z,72.41
2023-02-28T09:10:05.910Z,68.41
2023-02-28T09:12:36.184Z,66.76
2023-02-28T09:15:03.799Z,67.68
2023-02-28T09:17:31.494Z,65.05
2023-02-28T09:19:59.126Z,64.12
2023-02-28T09:22:26.183Z,62.64
2023-02-28T09:24:53.008Z,60.35
2023-02-28T09:27:19.796Z,56.99
2023-02-28T09:29:47.059Z,56.23
2023-02-28T09:32:13.790Z,55.58
2023-02-28T09:34:40.988Z,54.94
2023-02-28T09:37:07.759Z,52.10
2023-02-28T09:39:34.609Z,51.69
2023-02-28T09:42:03.743Z,52.43
2023-02-28T09:44:37.537Z,51.75
2023-02-28T09:47:31.634Z,49.78
2023-02-28T09:50:04.321Z,47.19
2023-02-28T09:52:33.353Z,47.15
2023-02-28T09:55:47.106Z,48.13
2023-02-28T09:58:21.013Z,48.02
2023-02-28T10:00:59.066Z,47.05
2023-02-28T10:03:58.188Z,44.61
2023-02-28T10:06:31.524Z,46.28
2023-02-28T10:09:10.758Z,45.08
2023-02-28T10:11:40.908Z,44.73
2023-02-28T10:14:23.352Z,45.34
2023-02-28T10:17:04.552Z,45.45
2023-02-28T10:19:35.573Z,46.12
2023-02-28T10:22:15.084Z,44.42
2023-02-28T10:24:46.342Z,43.89
2023-02-28T10:27:26.079Z,43.35
2023-02-28T10:29:58.587Z,42.91
2023-02-28T10:32:34.909Z,42.13
2023-02-28T10:35:07.458Z,44.12
2023-02-28T10:37:39.289Z,41.25
2023-02-28T10:40:08.850Z,41.09
2023-02-28T10:42:39.892Z,42.11
2023-02-28T10:45:11.811Z,44.14
2023-02-28T10:47:53.998Z,44.45
2023-02-28T10:50:50.653Z,44.13
2023-02-28T10:53:27.014Z,44.16
2023-02-28T10:56:26.488Z,42.71
2023-02-28T10:59:02.228Z,41.20
2023-02-28T11:01:44.371Z,41.34
2023-02-28T11:04:23.407Z,39.09
2023-02-28T11:07:02.282Z,37.04
2023-02-28T11:09:34.618Z,35.82
2023-02-28T11:12:03.053Z,36.05
2023-02-28T11:14:35.204Z,34.65
2023-02-28T11:17:23.753Z,35.98
2023-02-28T11:20:02.473Z,34.41
2023-02-28T11:22:32.677Z,30.28
2023-02-28T11:25:04.185Z,32.28
2023-02-28T11:27:30.992Z,30.39
2023-02-28T11:29:59.308Z,29.09
2023-02-28T11:32:30.068Z,31.94
2023-02-28T11:35:10.932Z,32.53
2023-02-28T11:37:39.739Z,30.78
2023-02-28T11:40:19.634Z,31.06
2023-02-28T11:42:49.400Z,32.52
2023-02-28T11:45:19.227Z,32.26
2023-02-28T11:47:56.758Z,31.54
2023-02-28T11:50:33.271Z,30.40
2023-02-28T11:53:17.664Z,31.12
2023-02-28T11:55:58.551Z,32.80
2023-02-28T11:58:37.990Z,31.02
2023-02-28T12:01:24.651Z,31.45
2023-02-28T12:04:12.981Z,29.47
2023-02-28T12:07:08.402Z,30.95
2023-02-28T12:09:47.939Z,29.61
2023-02-28T12:12:38.873Z,32.10
2023-02-28T12:15:41.039Z,30.83
2023-02-28T12:18:10.824Z,30.82
2023-02-28T12:20:49.468Z,31.25
2023-02-28T12:23:28.913Z,32.45
2023-02-28T12:26:13.084Z,31.65
2023-02-28T12:28:45.267Z,33.05
2023-02-28T12:31:26.453Z,33.15
2023-02-28T12:33:56.830Z,35.42
2023-02-28T12:36:24.941Z,36.12
2023-02-28T12:38:57.537Z,33.80
2023-02-28T12:41:43.638Z,35.53
2023-02-28T12:44:27.832Z,37.73
2023-02-28T12:46:59.161Z,35.96
2023-02-28T12:49:42.235Z,37.67
2023-02-28T12:52:14.526Z,35.17
2023-02-28T12:54:51.041Z,35.83
2023-02-28T12:57:32.932Z,37.32
2023-02-28T13:00:15.750Z,38.52
2023-02-28T13:02:54.891Z,37.22
2023-02-28T13:05:41.023Z,39.04
2023-02-28T13:08:28.939Z,39.65
2023-02-28T13:10:55.842Z,39.42
2023-02-28T13:13:26.746Z,39.82
2023-02-28T13:16:06.796Z,40.16
2023-02-28T13:18:38.249Z,41.38
2023-02-28T13:21:07.471Z,41.29
2023-02-28T13:23:48.543Z,42.00
2023-02-28T13:26:15.910Z,41.16
2023-02-28T13:29:05.487Z,40.75
2023-02-28T13:31:35.067Z,40.84
2023-02-28T13:34:16.681Z,43.10
2023-02-28T13:36:43.611Z,41.70
2023-02-28T13:39:36.212Z,43.83
2023-02-28T13:42:31.286Z,43.11
2023-02-28T13:45:07.575Z,41.58
2023-02-28T13:47:44.667Z,41.54
2023-02-28T13:50:26.433Z,41.85
2023-02-28T13:53:32.829Z,39.91
2023-02-28T13:56:28.459Z,39.81
2023-02-28T13:59:17.117Z,40.26
2023-02-28T14:02:18.083Z,39.84
2023-02-28T14:05:12.998Z,39.20
2023-02-28T14:07:45.942Z,38.98
2023-02-28T14:10:26.228Z,38.21
2023-02-28T14:13:01.035Z,38.43
2023-02-28T14:15:34.225Z,39.27
2023-02-28T14:18:03.613Z,37.85
2023-02-28T14:20:33.144Z,37.56
2023-02-28T14:23:14.880Z,38.27
2023-02-28T14:25:50.082Z,37.62
2023-02-28T14:28:25.838Z,37.71
2023-02-28T14:31:17.309Z,37.23
2023-02-28T14:34:08.296Z,38.92
2023-02-28T14:36:38.049Z,40.29
2023-02-28T14:39:22.466Z,39.91
2023-02-28T14:41:49.507Z,38.74
2023-02-28T14:44:27.388Z,40.22
2023-02-28T14:47:06.574Z,40.42
2023-02-28T14:49:46.510Z,39.74
2023-02-28T14:52:25.618Z,39.84
2023-02-28T14:54:58.436Z,40.12
2023-02-28T14:57:34.306Z,40.67
2023-02-28T15:00:22.499Z,41.55
2023-02-28T15:02:49.562Z,42.39
2023-02-28T15:05:19.201Z,43.40
2023-02-28T15:07:47.931Z,44.73
2023-02-28T15:10:20.864Z,46.20
2023-02-28T15:12:57.468Z,48.77
2023-02-28T15:16:04.155Z,50.67
2023-02-28T15:18:51.046Z,50.77
2023-02-28T15:21:46.467Z,51.77
2023-02-28T15:24:33.744Z,52.27
2023-02-28T15:27:06.899Z,54.04
2023-02-28T15:29:44.822Z,56.42
2023-02-28T15:32:26.540Z,57.45
2023-02-28T15:34:55.181Z,58.85
2023-02-28T15:37:34.314Z,60.03
2023-02-28T15:40:15.875Z,61.84
2023-02-28T15:42:45.011Z,62.06
2023-02-28T15:45:38.960Z,64.62
2023-02-28T15:48:14.434Z,64.67
2023-02-28T15:50:41.646Z,65.53
2023-02-28T15:53:16.014Z,65.38
2023-02-28T15:55:43.060Z,66.19
2023-02-28T15:58:13.994Z,66.38
2023-02-28T16:00:46.812Z,66.21
2023-02-28T16:03:28.508Z,66.79
2023-02-28T16:06:23.647Z,67.46
2023-02-28T16:08:52.298Z,67.10
2023-02-28T16:11:21.300Z,67.68
2023-02-28T16:13:48.598Z,67.84
2023-02-28T16:16:23.492Z,68.71
2023-02-28T16:18:50.327Z,69.25
2023-02-28T16:21:17.748Z,70.41
2023-02-28T16:23:44.723Z,71.69
2023-02-28T16:26:21.816Z,72.97
2023-02-28T16:28:48.564Z,74.09
2023-02-28T16:31:19.023Z,73.54
2023-02-28T16:33:46.525Z,72.81
2023-02-28T16:36:20.277Z,73.87
2023-02-28T16:38:47.092Z,74.54
2023-02-28T16:41:19.831Z,73.98
2023-02-28T16:43:52.568Z,74.13
2023-02-28T16:46:20.420Z,74.60
2023-02-28T16:48:52.996Z,74.86
2023-02-28T16:51:20.317Z,75.28
2023-02-28T16:53:47.845Z,75.44
2023-02-28T16:56:21.422Z,76.60
2023-02-28T16:58:49.666Z,81.14
2023-02-28T17:01:17.916Z,78.95
2023-02-28T17:03:45.033Z,80.35
2023-02-28T17:06:29.156Z,80.14
2023-02-28T17:08:57.939Z,82.16
2023-02-28T17:11:26.793Z,82.87
2023-02-28T17:13:55.008Z,84.45
2023-02-28T17:16:34.513Z,85.32
2023-02-28T17:19:04.764Z,85.40
2023-02-28T17:21:33.036Z,87.06
2023-02-28T17:24:01.523Z,87.46
2023-02-28T17:26:29.232Z,88.19
2023-02-28T17:28:57.925Z,89.01
2023-02-28T17:31:26.108Z,89.39
2023-02-28T17:33:53.985Z,89.05
2023-02-28T17:36:27.075Z,90.04
2023-02-28T17:38:56.222Z,90.18
2023-02-28T17:41:23.788Z,89.86
2023-02-28T17:43:51.499Z,90.57
2023-02-28T17:46:25.293Z,90.88
2023-02-28T17:48:53.709Z,91.72
2023-02-28T17:51:22.281Z,91.64
2023-02-28T17:53:50.100Z,92.41
2023-02-28T17:56:20.908Z,92.30
2023-02-28T17:58:48.347Z,92.96
2023-02-28T18:01:15.342Z,93.62
2023-02-28T18:03:42.533Z,94.59
2023-02-28T18:06:16.914Z,95.35
2023-02-28T18:08:43.740Z,95.61
2023-02-28T18:11:18.054Z,96.20
2023-02-28T18:13:47.036Z,96.90
2023-02-28T18:16:15.348Z,97.47
2023-02-28T18:18:43.237Z,97.90
2023-02-28T18:21:11.632Z,98.01
2023-02-28T18:23:47.683Z,97.97
2023-02-28T18:26:19.009Z,97.59
2023-02-28T18:28:46.622Z,98.04
2023-02-28T18:31:16.321Z,98.12
2023-02-28T18:33:44.073Z,98.99
2023-02-28T18:36:11.222Z,100.41
2023-02-28T18:38:38.069Z,100.32
2023-02-28T18:41:06.259Z,99.88
2023-02-28T18:43:35.404Z,99.80
2023-02-28T18:46:11.085Z,100.68
2023-02-28T18:48:38.360Z,101.27
2023-02-28T18:51:20.864Z,100.74
2023-02-28T18:53:48.046Z,101.03
2023-02-28T18:56:18.186Z,101.35
2023-02-28T18:58:45.334Z,101.16
2023-02-28T19:01:29.923Z,101.43
2023-02-28T19:03:57.023Z,101.38
2023-02-28T19:06:23.871Z,101.99
2023-02-28T19:08:55.953Z,102.32
2023-02-28T19:11:23.031Z,102.69
2023-02-28T19:13:50.421Z,102.27
2023-02-28T19:16:19.791Z,103.21
2023-02-28T19:18:46.937Z,103.27
2023-02-28T19:21:16.062Z,103.77
2023-02-28T19:23:43.099Z,103.44
2023-02-28T19:26:17.258Z,103.07
2023-02-28T19:28:44.311Z,102.63
2023-02-28T19:31:13.988Z,103.97
2023-02-28T19:33:41.565Z,104.97
2023-02-28T19:36:12.156Z,104.32
2023-02-28T19:38:40.593Z,105.06
2023-02-28T19:41:12.289Z,104.58
2023-02-28T19:43:38.988Z,103.42
2023-02-28T19:46:06.659Z,104.36
2023-02-28T19:48:34.555Z,104.57
2023-02-28T19:51:04.293Z,104.61
2023-02-28T19:53:32.555Z,104.68
2023-02-28T19:56:04.657Z,104.91
2023-02-28T19:58:32.945Z,104.86
2023-02-28T20:01:06.429Z,105.79
2023-02-28T20:03:33.256Z,105.92
2023-02-28T20:06:02.808Z,106.47
2023-02-28T20:08:30.084Z,106.64
2023-02-28T20:11:05.527Z,106.84
2023-02-28T20:13:32.613Z,106.78
2023-02-28T20:16:06.188Z,106.80
2023-02-28T20:18:33.967Z,107.44
2023-02-28T20:21:02.077Z,107.56
2023-02-28T20:23:29.502Z,107.15
2023-02-28T20:26:00.446Z,107.17
2023-02-28T20:28:27.419Z,107.31
2023-02-28T20:30:54.478Z,107.44
2023-02-28T20:33:21.550Z,107.42
2023-02-28T20:35:49.569Z,107.43
2023-02-28T20:38:16.344Z,107.30
2023-02-28T20:40:43.038Z,107.51
2023-02-28T20:43:09.845Z,107.39
2023-02-28T20:45:36.961Z,107.94
2023-02-28T20:48:04.818Z,107.78
2023-02-28T20:50:31.739Z,107.88
2023-02-28T20:52:58.569Z,107.72
2023-02-28T20:55:25.336Z,107.84
2023-02-28T20:57:56.193Z,110.15
2023-02-28T21:00:24.187Z,109.26
2023-02-28T21:02:51.003Z,109.09
2023-02-28T21:05:17.901Z,109.15
2023-02-28T21:07:44.776Z,108.33
2023-02-28T21:10:12.064Z,108.25
2023-02-28T21:12:39.079Z,108.16
2023-02-28T21:15:06.494Z,108.18
2023-02-28T21:17:33.184Z,108.07
2023-02-28T21:19:59.855Z,108.06
2023-02-28T21:22:26.662Z,108.28
2023-02-28T21:24:53.405Z,108.04
2023-02-28T21:27:20.140Z,107.93
2023-02-28T21:29:47.028Z,108.59
2023-02-28T21:32:14.808Z,108.62
2023-02-28T21:34:41.851Z,109.02
2023-02-28T21:37:08.670Z,108.85
2023-02-28T21:39:35.837Z,108.96
2023-02-28T21:42:04.114Z,108.83
2023-02-28T21:44:34.208Z,108.49
2023-02-28T21:47:02.396Z,108.62
2023-02-28T21:49:29.974Z,109.12
2023-02-28T21:51:57.151Z,108.94
2023-02-28T21:54:24.390Z,109.01
2023-02-28T21:56:51.306Z,108.54
2023-02-28T21:59:19.610Z,108.30
2023-02-28T22:01:46.818Z,108.15
2023-02-28T22:04:22.426Z,108.49
2023-02-28T22:06:57.278Z,108.85
2023-02-28T22:09:24.239Z,109.16
2023-02-28T22:11:51.284Z,109.88
2023-02-28T22:14:18.610Z,109.76
2023-02-28T22:16:51.740Z,109.32
2023-02-28T22:19:20.367Z,108.94
2023-02-28T22:21:47.559Z,109.13
2023-02-28T22:24:18.090Z,108.85
2023-02-28T22:26:44.913Z,108.62
2023-02-28T22:29:11.670Z,108.90
2023-02-28T22:31:38.508Z,109.08
2023-02-28T22:34:08.090Z,109.06
2023-02-28T22:36:35.952Z,109.10
2023-02-28T22:39:04.822Z,109.85
2023-02-28T22:41:32.563Z,109.34
2023-02-28T22:44:02.098Z,109.07
2023-02-28T22:46:31.148Z,109.74
2023-02-28T22:48:59.636Z,109.91
2023-02-28T22:51:26.638Z,109.72
2023-02-28T22:53:54.572Z,109.59
2023-02-28T22:56:23.346Z,109.36
2023-02-28T22:58:55.684Z,109.91
2023-02-28T23:01:24.759Z,110.65
2023-02-28T23:03:51.973Z,110.56
2023-02-28T23:06:23.170Z,110.74
2023-02-28T23:08:51.858Z,110.91
2023-02-28T23:11:21.807Z,109.74
2023-02-28T23:13:58.489Z,110.83
2023-02-28T23:16:35.935Z,111.14
2023-02-28T23:19:06.225Z,110.98
2023-02-28T23:21:34.307Z,110.63
2023-02-28T23:24:06.025Z,110.39
2023-02-28T23:26:33.927Z,109.94
2023-02-28T23:29:01.289Z,110.23
2023-02-28T23:31:28.123Z,110.37
2023-02-28T23:33:56.572Z,110.27
2023-02-28T23:36:23.925Z,110.14
2023-02-28T23:38:52.781Z,109.88
2023-02-28T23:41:20.625Z,109.67
2023-02-28T23:43:47.673Z,109.88
2023-02-28T23:46:15.918Z,110.00
2023-02-28T23:48:43.236Z,110.10
2023-02-28T23:51:14.726Z,110.20
2023-02-28T23:53:43.892Z,109.99
2023-02-28T23:56:16.122Z,110.22
2023-02-28T23:58:44.102Z,110.37
